Disclaimer

Please do not use the information listed here in-flight or in-navigation, as they are not provided to us by the airports but are provided by volunteers, so they might be outdated.

Search


Regions


Airport information page

Radio informations:
Tower (TWR) - 126.2 MHz
PMSV - 344.6 MHz
WING OPS - 340.2 MHz
Ground (GND) - 121.9 MHz
DEP - 124.5 MHz
Clearance delivery - 120.6 MHz
Automatic Terminal Information Service (ATIS) - 260.0 MHz
ARR - 124.5 MHz
Approach (APP) - 124.5 MHz
TRAN SVCG - 308.7 MHz

Airport informations:
Latitude: 54° 24' 18.00" N
Longitude: 110° 16' 46.00" W
Elevation: 1775 feet - 541 meters
Operating hours: N/A
Operating agency: Military
Timezone: Second Sunday in March at 0200 to first Sunday in November at 0200 local time (Exception Arizona and that portion of Indiana in the Eastern Time Zone)
Fuel: JP-4, Wide cut turbine fuel MIL Spec T-5624

Runway information:
04/22 - 8270 x 200 feet< - >2521 x 61 meters
13R/31L - 10000 x 150 feet< - >3048 x 46 meters
13L/31R - 12600 x 200 feet< - >3840 x 61 meters

Recent METARs:
CYOD 181718Z 11012KT 2 1/2SM -SN BKN012 OVC030 M11/M13 A2990 RMK SF5SC3 VIS VRB 13/4-4 SLP167
CYOD 181817Z 09007KT 5SM -SN SCT012 OVC023 M11/M13 A2992 RMK SF4SC4 VIS VRB 3-7 SLP174
CYOD 181817Z 09007KT 5SM -SN SCT012 OVC023 M11/M13 A2992 RMK SF4SC4 VIS VRB 3-7 SLP174

Airport on the map: